Terminal Aerodrome Forecast
Issued by NWS Quad Cities IA IL

Home | Current Version | Previous Version | Text Only | Print | Product List | Glossary On
Versions: 1 2 3 4 5 6 7 8 9 10 11 12 13 14 15 16 17 18 19 20 21 22
468
FTUS43 KDVN 231342 AAA
TAFMLI
TAF AMD
KMLI 231342Z 2314/2412 VRB04KT P6SM BKN250
     FM231600 22008KT P6SM SCT100 BKN250
     FM232200 30014G28KT P6SM BKN080
     FM240500 30015G30KT P6SM -RA OVC025=

USA.gov is the U.S. government's official web portal to all federal, state and local government web resources and services.